EmailTwitter


Surface observations / United Kingdom / EGLC

Regions: Quebec | Canada | USA | Europe | France | UK | Elsewhere
Station
Display
Info & Location for EGLC | Help decoding METAR

Weather Conditions observed on 2018/11/17 at 01:50 UTC at LONDON CITY AIRP, UK (EGLC)

Sky conditions: overcast.

Obstruction(s) to Vision: light drizzle.

Temperature: 9.0 Celsius.

Dewpoint: 9.0 Celsius.

Relative Humidity: 100%

Windchill Factor: 6.

Winds: East at 20 km/h or 11 knots.

Mean Sea level Pressure: 102.70 kilopascals.

Horizontal visibility: 1.74 statute miles or 2.78 kilometers.

Height of the Ceiling: 61 metres ( 200 feet ).

Coded METAR:

EGLC 170150Z AUTO 09011KT 2800 -DZ BKN002 OVC006 09/09 Q1027 REDZ=